Holbeach, United Kingdom
Current Conditions -  °F | °C
As of 7:50 PM on Thursday 27 Nov 2014 (Local Time) from EGXC Reporting Station
Haze Haze  
Wind Chill: 46°   Ceiling: 7000
Heat Index: 46°   Visibility: 2.5mi
Dew Point: 45°   Wind: 3mph
Humidity: 93%   Direction: 80°E
Pressure: 29.62"   Gusts: NA
Location:  52.8°N, 0.01°E
Report Text: EGXC 271950Z 08003KT 4000 BR SCT012 BKN070 08/07 Q1003 GRN
Loading
Personal Weather Stations






























Interactive Weather Map New forecast layout! Learn more

10-Day Weather Forecast

Advertisements
Track Severe Weather on mobile